Time;durP1;ratioP1;P1;durP2;ratioP2;P2;SDS_P1;SDS_P2;PMS_P1;PMS_P2;Temp;Humidity;BMP_temperature;BMP_pressure;BME280_temperature;BME280_humidity;BME280_pressure;Samples;Min_cycle;Max_cycle;Signal;HPM_P1;HPM_P2
2023/01/27 00:01:15;;;;;;;6.60;2.53;;;5.50;99.90;;;;;;5014820;28;20576;-64
2023/01/27 00:03:44;;;;;;;7.70;2.07;;;5.50;99.90;;;;;;5021009;28;20731;-65
2023/01/27 00:06:12;;;;;;;9.67;2.20;;;5.50;99.90;;;;;;5015911;28;20540;-64
2023/01/27 00:08:41;;;;;;;7.73;2.30;;;5.50;99.90;;;;;;5023956;28;20256;-64
2023/01/27 00:14:11;;;;;;;16.43;2.70;;;5.50;99.90;;;;;;4968245;28;20826;-64
2023/01/27 00:16:39;;;;;;;13.83;2.53;;;5.60;99.90;;;;;;4977403;28;20209;-64
2023/01/27 00:19:07;;;;;;;6.30;2.40;;;5.60;99.90;;;;;;4999811;28;20210;-65
2023/01/27 00:24:37;;;;;;;16.40;2.57;;;5.60;99.90;;;;;;5040308;28;20193;-64
2023/01/27 00:27:07;;;;;;;11.07;2.50;;;5.60;99.90;;;;;;5019801;28;20204;-65
2023/01/27 00:29:38;;;;;;;9.00;2.40;;;5.60;99.90;;;;;;5031608;28;20190;-64
2023/01/27 00:34:52;;;;;;;11.03;2.67;;;5.60;99.90;;;;;;5025999;28;20696;-65
2023/01/27 00:37:21;;;;;;;8.10;2.50;;;5.60;99.90;;;;;;5026705;28;20190;-64
2023/01/27 00:39:49;;;;;;;14.97;2.73;;;5.60;99.90;;;;;;5030449;28;20197;-64
2023/01/27 00:42:17;;;;;;;8.83;2.20;;;5.60;99.90;;;;;;5021322;28;20221;-64
2023/01/27 00:47:29;;;;;;;9.33;2.57;;;5.70;99.90;;;;;;5014194;28;20220;-64
2023/01/27 00:49:58;;;;;;;10.03;2.50;;;5.60;99.90;;;;;;5011950;28;20209;-65
2023/01/27 00:52:26;;;;;;;18.13;2.50;;;5.60;99.90;;;;;;5019591;28;20649;-65
2023/01/27 00:54:55;;;;;;;13.93;3.07;;;5.60;99.90;;;;;;5026051;28;20909;-65
2023/01/27 00:57:23;;;;;;;9.53;2.60;;;5.60;99.90;;;;;;5023642;28;20196;-65
2023/01/27 00:59:53;;;;;;;13.90;3.50;;;5.70;99.90;;;;;;5027101;28;20642;-65
2023/01/27 01:02:21;;;;;;;16.87;3.00;;;5.70;99.90;;;;;;5027005;28;20201;-65
2023/01/27 01:04:50;;;;;;;14.37;2.50;;;5.60;99.90;;;;;;5025367;28;20193;-65
2023/01/27 01:07:18;;;;;;;17.63;3.13;;;5.60;99.90;;;;;;5026454;28;20233;-64
2023/01/27 01:09:46;;;;;;;7.20;2.40;;;5.60;99.90;;;;;;5014995;28;20194;-64
2023/01/27 01:12:14;;;;;;;23.33;3.10;;;5.60;99.90;;;;;;5023091;28;20212;-64
2023/01/27 01:14:43;;;;;;;14.10;3.25;;;5.50;99.90;;;;;;5029127;28;20548;-65
2023/01/27 01:17:12;;;;;;;14.63;2.95;;;5.60;99.90;;;;;;5017571;28;20451;-64
2023/01/27 01:19:41;;;;;;;9.90;2.90;;;5.50;99.90;;;;;;5033692;28;20216;-65
2023/01/27 01:22:09;;;;;;;14.13;3.03;;;5.50;99.90;;;;;;5022858;28;20204;-65
2023/01/27 01:24:37;;;;;;;13.73;2.50;;;5.60;99.90;;;;;;5029522;28;20207;-65
2023/01/27 01:27:06;;;;;;;9.27;2.87;;;5.60;99.90;;;;;;5024421;28;20204;-65
2023/01/27 01:29:34;;;;;;;14.70;3.00;;;5.60;99.90;;;;;;5027905;28;20200;-65
2023/01/27 01:32:02;;;;;;;14.60;3.23;;;5.60;99.90;;;;;;5027555;28;20201;-65
2023/01/27 01:34:32;;;;;;;13.63;3.00;;;5.60;99.90;;;;;;5023747;28;20209;-65
2023/01/27 01:37:00;;;;;;;13.47;2.90;;;5.60;99.90;;;;;;5027044;28;20222;-65
2023/01/27 01:39:28;;;;;;;13.53;2.90;;;5.50;99.90;;;;;;5023588;28;20216;-65
2023/01/27 01:41:57;;;;;;;13.67;3.07;;;5.50;99.90;;;;;;5031749;28;20706;-65
2023/01/27 01:44:28;;;;;;;12.87;2.63;;;5.50;99.90;;;;;;5024241;28;20193;-65
2023/01/27 01:46:56;;;;;;;14.67;2.83;;;5.60;99.90;;;;;;5027329;28;20192;-65
2023/01/27 01:49:30;;;;;;;15.10;2.57;;;5.60;99.90;;;;;;5029571;28;20496;-65
2023/01/27 01:52:03;;;;;;;11.20;2.83;;;5.60;99.90;;;;;;5026672;28;20189;-65
2023/01/27 01:54:37;;;;;;;18.40;3.07;;;5.50;99.90;;;;;;5027485;28;20224;-65
2023/01/27 01:57:10;;;;;;;12.10;2.90;;;5.50;99.90;;;;;;5028633;28;20217;-65
2023/01/27 01:59:42;;;;;;;13.77;3.00;;;5.50;99.90;;;;;;5029565;28;20263;-65
2023/01/27 02:02:15;;;;;;;20.03;3.07;;;5.50;99.90;;;;;;5025519;28;20219;-65
2023/01/27 02:04:49;;;;;;;13.10;2.53;;;5.50;99.90;;;;;;5030200;28;20208;-65
2023/01/27 02:07:24;;;;;;;13.00;2.70;;;5.50;99.90;;;;;;5021082;28;20232;-65
2023/01/27 02:09:56;;;;;;;13.83;2.80;;;5.50;99.90;;;;;;5028278;28;20247;-65
2023/01/27 02:12:25;;;;;;;20.70;2.80;;;5.50;99.90;;;;;;5017534;28;20205;-65
2023/01/27 02:14:53;;;;;;;13.23;2.67;;;5.50;99.90;;;;;;5027509;28;20278;-65
2023/01/27 02:17:22;;;;;;;11.17;2.80;;;5.50;99.90;;;;;;5022931;28;20213;-65
2023/01/27 02:20:03;;;;;;;15.97;2.73;;;5.60;99.90;;;;;;5021467;28;20521;-65
2023/01/27 02:22:43;;;;;;;12.07;2.80;;;5.60;99.90;;;;;;5023645;28;20259;-65
2023/01/27 02:25:19;;;;;;;10.07;2.83;;;5.60;99.90;;;;;;5022769;28;20598;-65
2023/01/27 02:27:49;;;;;;;14.93;3.03;;;5.60;99.90;;;;;;5029963;28;20197;-65
2023/01/27 02:30:18;;;;;;;9.83;2.40;;;5.70;99.90;;;;;;5027635;28;20214;-65
2023/01/27 02:32:47;;;;;;;6.80;2.60;;;5.60;99.90;;;;;;5019632;28;22530;-65
2023/01/27 02:35:22;;;;;;;10.43;2.80;;;5.60;99.90;;;;;;5022621;28;20691;-65
2023/01/27 02:37:52;;;;;;;19.60;2.70;;;5.50;99.90;;;;;;5025587;28;20548;-65
2023/01/27 02:40:22;;;;;;;8.70;2.70;;;5.50;99.90;;;;;;5026531;28;20213;-65
2023/01/27 02:42:54;;;;;;;6.57;2.70;;;5.60;99.90;;;;;;5024568;28;20224;-65
2023/01/27 02:45:23;;;;;;;15.90;2.97;;;5.50;99.90;;;;;;5027529;28;20198;-65
2023/01/27 02:47:51;;;;;;;11.27;2.90;;;5.50;99.90;;;;;;5028476;28;20201;-65
2023/01/27 02:50:20;;;;;;;11.17;2.80;;;5.50;99.90;;;;;;5027342;28;20280;-65
2023/01/27 02:52:48;;;;;;;12.90;2.60;;;5.50;99.90;;;;;;5026316;28;20197;-65
2023/01/27 02:55:17;;;;;;;19.13;3.10;;;5.50;99.90;;;;;;5023085;28;20205;-65
2023/01/27 02:57:45;;;;;;;10.27;2.90;;;5.50;99.90;;;;;;5024681;28;20275;-65
2023/01/27 03:00:15;;;;;;;15.53;3.40;;;5.40;99.90;;;;;;5030106;28;20204;-65
2023/01/27 03:02:44;;;;;;;12.10;3.00;;;5.50;99.90;;;;;;5027068;28;20568;-65
2023/01/27 03:05:13;;;;;;;13.97;3.07;;;5.40;99.90;;;;;;5028111;28;20210;-65
2023/01/27 03:07:42;;;;;;;16.57;3.87;;;5.40;99.90;;;;;;5022537;28;21144;-65
2023/01/27 03:10:11;;;;;;;11.17;3.20;;;5.40;99.90;;;;;;5025530;28;20204;-65
2023/01/27 03:12:39;;;;;;;11.37;3.27;;;5.40;99.90;;;;;;5032281;28;20219;-65
2023/01/27 03:18:11;;;;;;;10.43;3.83;;;5.50;99.90;;;;;;5021359;28;20295;-65
2023/01/27 03:20:45;;;;;;;11.20;3.83;;;5.40;99.90;;;;;;5025263;28;20623;-65
2023/01/27 03:23:14;;;;;;;12.27;3.43;;;5.40;99.90;;;;;;5024236;28;20201;-65
2023/01/27 03:25:43;;;;;;;9.63;3.60;;;5.40;99.90;;;;;;5024678;28;20201;-65
2023/01/27 03:28:12;;;;;;;9.67;3.90;;;5.50;99.90;;;;;;5030032;28;20610;-65
2023/01/27 03:30:41;;;;;;;9.73;3.93;;;5.40;99.90;;;;;;5023706;28;20201;-65
2023/01/27 03:33:10;;;;;;;5.40;3.30;;;5.40;99.90;;;;;;5022985;28;22074;-65
2023/01/27 03:35:47;;;;;;;16.10;3.53;;;5.40;99.90;;;;;;5020097;28;20232;-65
2023/01/27 03:46:35;;;;;;;9.73;3.60;;;5.30;99.90;;;;;;5024014;28;20193;-65
2023/01/27 03:49:05;;;;;;;10.87;3.60;;;5.40;99.90;;;;;;5027817;28;20197;-65
2023/01/27 03:51:33;;;;;;;16.97;3.60;;;5.40;99.90;;;;;;5022975;28;20197;-65
2023/01/27 03:54:02;;;;;;;11.10;3.40;;;5.30;99.90;;;;;;5003061;28;20221;-65
2023/01/27 03:56:31;;;;;;;11.00;3.70;;;5.30;99.90;;;;;;5028412;28;20581;-65
2023/01/27 03:58:59;;;;;;;17.40;4.00;;;5.30;99.90;;;;;;5018633;28;20277;-65
2023/01/27 04:01:28;;;;;;;6.47;3.60;;;5.30;99.90;;;;;;5042129;28;20219;-65
2023/01/27 04:06:57;;;;;;;6.83;3.50;;;5.20;99.90;;;;;;5023726;28;20197;-65
2023/01/27 04:09:27;;;;;;;5.17;3.80;;;5.20;99.90;;;;;;5020401;28;20560;-65
2023/01/27 04:11:59;;;;;;;6.43;3.70;;;5.30;99.90;;;;;;5025967;28;20212;-65
2023/01/27 04:14:30;;;;;;;8.20;3.50;;;5.30;99.90;;;;;;5026362;28;20193;-65
2023/01/27 04:17:00;;;;;;;9.87;3.10;;;5.20;99.90;;;;;;5023964;28;20627;-65
2023/01/27 04:19:29;;;;;;;7.77;3.47;;;5.20;99.90;;;;;;5018777;28;20194;-65
2023/01/27 04:22:00;;;;;;;8.03;3.47;;;5.20;99.90;;;;;;5023600;28;20284;-65
2023/01/27 04:24:29;;;;;;;4.73;3.43;;;5.20;99.90;;;;;;5023708;28;20208;-64
2023/01/27 04:26:59;;;;;;;6.80;3.23;;;5.10;99.90;;;;;;5014399;28;20389;-65
2023/01/27 04:29:30;;;;;;;9.53;3.73;;;5.10;99.90;;;;;;5016161;28;20205;-65
2023/01/27 04:31:59;;;;;;;10.37;3.87;;;5.10;99.90;;;;;;5026987;28;20201;-65
2023/01/27 04:34:28;;;;;;;5.17;3.70;;;5.10;99.90;;;;;;5027480;28;20205;-65
2023/01/27 04:36:57;;;;;;;12.57;3.87;;;5.10;99.90;;;;;;5026663;28;20309;-65
2023/01/27 04:39:26;;;;;;;10.93;4.03;;;5.00;99.90;;;;;;5025269;28;20771;-65
2023/01/27 04:41:56;;;;;;;11.87;3.80;;;5.00;99.90;;;;;;5023274;28;20673;-65
2023/01/27 04:44:24;;;;;;;8.30;3.97;;;5.00;99.90;;;;;;5030769;28;20194;-65
2023/01/27 04:46:54;;;;;;;6.90;4.23;;;5.00;99.90;;;;;;5027206;28;20280;-65
2023/01/27 04:49:22;;;;;;;5.97;4.47;;;5.00;99.90;;;;;;5018716;28;20197;-65
2023/01/27 04:51:50;;;;;;;6.83;4.40;;;5.00;99.90;;;;;;5025384;28;20251;-64
2023/01/27 04:54:19;;;;;;;14.07;5.10;;;5.00;99.90;;;;;;5024865;28;20190;-65
2023/01/27 04:56:57;;;;;;;13.57;4.73;;;5.00;99.90;;;;;;5026356;28;20190;-65
2023/01/27 04:59:25;;;;;;;11.70;6.10;;;5.00;99.90;;;;;;5038764;28;20285;-65
2023/01/27 05:01:54;;;;;;;11.40;6.53;;;5.00;99.90;;;;;;5024785;28;20556;-65
2023/01/27 05:04:25;;;;;;;13.20;5.93;;;5.00;99.90;;;;;;5007255;28;20284;-65
2023/01/27 05:06:56;;;;;;;12.27;6.47;;;5.00;99.90;;;;;;5028486;28;20237;-65
2023/01/27 05:09:24;;;;;;;9.23;5.20;;;5.00;99.90;;;;;;5023592;28;20216;-65
2023/01/27 05:11:52;;;;;;;8.30;4.97;;;4.90;99.90;;;;;;5028458;28;20185;-65
2023/01/27 05:14:23;;;;;;;11.33;5.33;;;4.90;99.90;;;;;;5027144;28;20197;-65
2023/01/27 05:16:51;;;;;;;13.80;5.73;;;4.90;99.90;;;;;;5031109;28;20197;-65
2023/01/27 05:19:20;;;;;;;9.83;5.77;;;4.90;99.90;;;;;;5022013;28;20616;-64
2023/01/27 05:21:48;;;;;;;13.43;7.30;;;4.80;99.90;;;;;;5022145;28;20655;-65
2023/01/27 05:24:16;;;;;;;9.50;6.80;;;4.80;99.90;;;;;;5024972;28;20201;-65
2023/01/27 05:26:45;;;;;;;11.07;7.30;;;4.80;99.90;;;;;;5030727;28;20610;-65
2023/01/27 05:29:13;;;;;;;15.43;8.10;;;4.70;99.90;;;;;;5030473;28;20186;-65
2023/01/27 05:31:43;;;;;;;16.57;8.13;;;4.70;99.90;;;;;;5025431;28;20232;-65
2023/01/27 05:34:12;;;;;;;10.80;7.33;;;4.70;99.90;;;;;;5017480;28;20198;-65
2023/01/27 05:36:40;;;;;;;14.00;8.27;;;4.70;99.90;;;;;;5022719;28;20198;-65
2023/01/27 05:39:10;;;;;;;12.50;7.80;;;4.60;99.90;;;;;;5023895;28;20224;-64
2023/01/27 05:41:38;;;;;;;19.03;7.87;;;4.60;99.90;;;;;;5019092;28;20189;-64
2023/01/27 05:44:11;;;;;;;12.00;6.50;;;4.60;99.90;;;;;;5023238;28;20202;-64
2023/01/27 05:46:40;;;;;;;13.23;6.63;;;4.60;99.90;;;;;;5024474;28;20190;-65
2023/01/27 05:49:10;;;;;;;9.63;7.00;;;4.60;99.90;;;;;;5018450;28;20209;-65
2023/01/27 05:51:39;;;;;;;11.33;7.03;;;4.50;99.90;;;;;;5027598;28;20206;-65
2023/01/27 05:54:09;;;;;;;15.87;7.63;;;4.50;99.90;;;;;;5028357;28;20217;-65
2023/01/27 05:56:38;;;;;;;13.30;7.43;;;4.60;99.90;;;;;;5026902;28;20284;-65
2023/01/27 05:59:07;;;;;;;8.40;6.43;;;4.50;99.90;;;;;;5028246;28;20726;-64
2023/01/27 06:01:36;;;;;;;15.73;7.70;;;4.50;99.90;;;;;;5024741;28;20192;-65
2023/01/27 06:04:05;;;;;;;14.77;6.93;;;4.50;99.90;;;;;;5024863;28;20216;-64
2023/01/27 06:06:35;;;;;;;14.97;7.10;;;4.50;99.90;;;;;;5014334;28;20190;-64
2023/01/27 06:09:04;;;;;;;14.83;7.10;;;4.50;99.90;;;;;;5023019;28;20665;-65
2023/01/27 06:11:32;;;;;;;8.87;6.20;;;4.50;99.90;;;;;;5013192;28;20279;-64
2023/01/27 06:14:00;;;;;;;9.83;6.80;;;4.40;99.90;;;;;;5023731;28;20240;-64
2023/01/27 06:16:29;;;;;;;9.50;6.30;;;4.40;99.90;;;;;;5017860;28;20212;-65
2023/01/27 06:18:58;;;;;;;11.80;6.47;;;4.40;99.90;;;;;;5027891;28;20694;-65
2023/01/27 06:21:26;;;;;;;9.83;6.67;;;4.40;99.90;;;;;;5019573;28;20673;-65
2023/01/27 06:23:56;;;;;;;11.77;6.97;;;4.40;99.90;;;;;;5022347;28;20203;-64
2023/01/27 06:26:25;;;;;;;16.00;7.40;;;4.40;99.90;;;;;;5018162;28;20209;-65
2023/01/27 06:28:55;;;;;;;13.70;7.43;;;4.40;99.90;;;;;;5020748;28;20214;-65
2023/01/27 06:31:24;;;;;;;12.67;8.23;;;4.40;99.90;;;;;;5016926;28;20190;-65
2023/01/27 06:33:53;;;;;;;14.67;8.30;;;4.30;99.90;;;;;;5017658;28;20193;-65
2023/01/27 06:36:22;;;;;;;14.63;8.83;;;4.30;99.90;;;;;;5023011;28;20267;-65
2023/01/27 06:38:51;;;;;;;20.80;8.97;;;4.20;99.90;;;;;;5018011;28;20199;-64
2023/01/27 06:41:20;;;;;;;18.30;8.63;;;4.20;99.90;;;;;;5020561;28;20618;-65
2023/01/27 06:43:49;;;;;;;17.30;8.30;;;4.20;99.90;;;;;;5022609;28;20575;-65
2023/01/27 06:46:17;;;;;;;13.23;8.27;;;4.20;99.90;;;;;;5041825;28;20614;-65
2023/01/27 06:48:45;;;;;;;15.87;8.20;;;4.20;99.90;;;;;;5022978;28;20665;-65
2023/01/27 06:51:14;;;;;;;18.17;8.60;;;4.20;99.90;;;;;;5026730;28;20437;-65
2023/01/27 06:53:42;;;;;;;16.07;9.00;;;4.20;99.90;;;;;;5023248;28;20470;-65
2023/01/27 06:56:10;;;;;;;17.97;9.20;;;4.20;99.90;;;;;;5027249;28;20679;-65
2023/01/27 06:58:41;;;;;;;17.50;8.43;;;4.10;99.90;;;;;;5019707;28;20691;-65
2023/01/27 07:01:09;;;;;;;15.30;9.07;;;4.10;99.90;;;;;;5020429;28;20216;-65
2023/01/27 07:03:38;;;;;;;18.00;9.07;;;4.10;99.90;;;;;;5029821;28;20279;-65
2023/01/27 07:06:07;;;;;;;18.83;9.57;;;4.10;99.90;;;;;;5033327;28;20189;-65
2023/01/27 07:08:35;;;;;;;15.70;8.53;;;4.10;99.90;;;;;;5023060;28;20226;-65
2023/01/27 07:11:06;;;;;;;12.40;8.03;;;4.10;99.90;;;;;;5019711;28;20600;-65
2023/01/27 07:13:35;;;;;;;17.87;9.57;;;4.10;99.90;;;;;;5024582;28;20603;-65
2023/01/27 07:16:05;;;;;;;19.23;9.60;;;4.10;99.90;;;;;;5023973;28;20197;-65
2023/01/27 07:18:34;;;;;;;14.90;8.93;;;4.00;99.90;;;;;;5046681;28;20219;-65
2023/01/27 07:21:04;;;;;;;15.53;8.40;;;4.00;99.90;;;;;;5026975;28;20189;-65
2023/01/27 07:23:32;;;;;;;12.00;8.27;;;4.00;99.90;;;;;;5006404;28;20212;-64
2023/01/27 07:26:02;;;;;;;17.37;8.10;;;4.00;99.90;;;;;;5018936;28;20270;-65
2023/01/27 07:28:42;;;;;;;14.60;7.73;;;4.00;99.90;;;;;;5023095;28;20290;-64
2023/01/27 07:31:12;;;;;;;13.87;8.10;;;4.00;99.90;;;;;;5027137;28;20205;-64
2023/01/27 07:33:40;;;;;;;16.50;7.80;;;3.90;99.90;;;;;;5015285;28;20197;-65
2023/01/27 07:36:09;;;;;;;17.77;8.10;;;3.90;99.90;;;;;;5018743;28;20691;-65
2023/01/27 07:38:38;;;;;;;14.93;8.30;;;3.90;99.90;;;;;;5012679;28;20222;-64
2023/01/27 07:41:07;;;;;;;11.87;7.97;;;3.90;99.90;;;;;;5027231;28;20308;-65
2023/01/27 07:43:35;;;;;;;16.50;8.50;;;3.90;99.90;;;;;;5020663;28;20295;-65
2023/01/27 07:46:03;;;;;;;14.20;7.53;;;3.90;99.90;;;;;;5012657;28;20206;-65
2023/01/27 07:48:33;;;;;;;15.63;8.60;;;3.90;99.90;;;;;;5013049;28;20249;-65
2023/01/27 07:51:01;;;;;;;15.53;8.53;;;3.90;99.90;;;;;;5022394;28;20580;-65
2023/01/27 07:53:30;;;;;;;16.13;8.57;;;3.90;99.90;;;;;;5017175;28;20194;-65
2023/01/27 07:55:59;;;;;;;14.13;8.87;;;3.90;99.90;;;;;;5018294;28;20212;-65
2023/01/27 07:58:27;;;;;;;18.67;9.47;;;3.90;99.90;;;;;;5019374;28;20618;-65
2023/01/27 08:00:56;;;;;;;18.73;9.73;;;3.90;99.90;;;;;;5036643;28;20540;-65
2023/01/27 08:03:26;;;;;;;18.80;9.50;;;3.90;99.90;;;;;;5023362;28;20776;-65
2023/01/27 08:06:03;;;;;;;21.50;9.77;;;3.90;99.90;;;;;;5018268;28;20699;-65
2023/01/27 08:08:31;;;;;;;15.57;9.17;;;3.90;99.90;;;;;;5016958;28;20234;-65
2023/01/27 08:11:00;;;;;;;17.97;9.07;;;3.90;99.90;;;;;;5024478;28;20506;-65
2023/01/27 08:13:29;;;;;;;15.57;9.17;;;3.90;99.90;;;;;;5026514;28;20198;-65
2023/01/27 08:15:57;;;;;;;18.13;9.87;;;4.00;99.90;;;;;;5017864;28;20285;-65
2023/01/27 08:18:26;;;;;;;19.60;10.20;;;4.00;99.90;;;;;;5018240;28;20206;-64
2023/01/27 08:21:00;;;;;;;19.03;10.27;;;4.00;99.90;;;;;;5017233;28;20557;-65
2023/01/27 08:23:29;;;;;;;20.23;10.87;;;4.00;99.90;;;;;;5014526;28;20205;-65
2023/01/27 08:26:00;;;;;;;17.50;10.03;;;4.00;99.90;;;;;;5030526;28;20204;-65
2023/01/27 08:28:30;;;;;;;19.87;10.60;;;4.10;99.90;;;;;;5031840;28;20232;-65
2023/01/27 08:31:04;;;;;;;17.43;10.97;;;4.10;99.90;;;;;;5022154;28;20190;-65
2023/01/27 08:33:32;;;;;;;16.17;10.17;;;4.10;99.90;;;;;;5016447;28;20215;-65
2023/01/27 08:36:09;;;;;;;18.97;10.73;;;4.10;99.90;;;;;;5027180;28;20200;-65
2023/01/27 08:38:38;;;;;;;20.63;11.23;;;4.10;99.90;;;;;;5022284;28;20292;-64
2023/01/27 08:41:08;;;;;;;20.97;10.83;;;4.10;99.90;;;;;;5028467;28;20208;-64
2023/01/27 08:43:36;;;;;;;22.63;11.20;;;4.10;99.90;;;;;;5021592;28;20213;-64
2023/01/27 08:46:06;;;;;;;23.10;12.17;;;4.10;99.90;;;;;;5026127;28;20185;-64
2023/01/27 08:48:35;;;;;;;23.40;11.27;;;4.10;99.90;;;;;;5016883;28;20197;-64
2023/01/27 08:51:07;;;;;;;19.13;11.17;;;4.10;99.90;;;;;;5016617;28;20221;-65
2023/01/27 08:53:36;;;;;;;19.10;11.20;;;4.20;99.90;;;;;;5023878;28;20201;-65
2023/01/27 08:56:07;;;;;;;18.70;10.57;;;4.20;99.90;;;;;;5027430;28;20196;-64
2023/01/27 08:58:36;;;;;;;22.27;10.80;;;4.20;99.90;;;;;;5020419;28;20202;-65
2023/01/27 09:01:06;;;;;;;18.93;10.87;;;4.30;99.90;;;;;;5028274;28;20649;-65
2023/01/27 09:03:35;;;;;;;17.63;11.07;;;4.30;99.90;;;;;;5013417;28;20194;-65
2023/01/27 09:06:09;;;;;;;18.43;10.17;;;4.40;99.90;;;;;;5019417;28;20272;-65
2023/01/27 09:08:37;;;;;;;21.77;10.77;;;4.50;99.90;;;;;;5023442;28;20700;-65
2023/01/27 09:11:11;;;;;;;21.23;10.80;;;4.50;99.90;;;;;;5024781;28;20193;-65
2023/01/27 09:13:39;;;;;;;19.60;11.13;;;4.60;99.90;;;;;;5022977;28;20201;-65
2023/01/27 09:16:08;;;;;;;19.77;10.80;;;4.60;99.90;;;;;;5021639;28;20197;-64
2023/01/27 09:18:37;;;;;;;17.97;10.57;;;4.50;99.90;;;;;;5021032;28;20277;-64
2023/01/27 09:21:07;;;;;;;16.43;9.50;;;4.50;99.90;;;;;;5028277;28;20574;-64
2023/01/27 09:23:35;;;;;;;14.57;9.77;;;4.40;99.90;;;;;;5025567;28;20204;-65
2023/01/27 09:26:04;;;;;;;17.80;10.33;;;4.50;99.90;;;;;;5024650;28;20210;-65
2023/01/27 09:28:32;;;;;;;16.67;10.43;;;4.50;99.90;;;;;;5025028;28;20202;-65
2023/01/27 09:31:02;;;;;;;19.57;10.80;;;4.40;99.90;;;;;;5027229;28;20405;-65
2023/01/27 09:33:31;;;;;;;17.20;10.37;;;4.40;99.90;;;;;;5025436;28;20198;-65
2023/01/27 09:36:04;;;;;;;18.40;10.30;;;4.50;99.90;;;;;;5019329;28;20197;-65
2023/01/27 09:38:39;;;;;;;18.70;11.00;;;4.50;99.90;;;;;;5015275;28;20198;-65
2023/01/27 09:41:56;;;;;;;19.60;11.47;;;4.50;99.90;;;;;;5026983;28;20280;-65
2023/01/27 09:44:52;;;;;;;16.73;10.53;;;4.50;99.90;;;;;;5019114;28;20578;-65
2023/01/27 09:47:36;;;;;;;21.23;11.43;;;4.60;99.90;;;;;;4999527;28;20210;-65
2023/01/27 09:50:18;;;;;;;20.13;11.27;;;4.60;99.90;;;;;;5032945;28;20196;-65
2023/01/27 09:53:07;;;;;;;19.70;11.07;;;4.60;99.90;;;;;;5028245;28;20189;-65
2023/01/27 09:55:45;;;;;;;20.10;10.40;;;4.70;99.90;;;;;;5027037;28;20740;-64
2023/01/27 09:58:19;;;;;;;22.43;10.93;;;4.70;99.90;;;;;;5022279;28;20271;-65
2023/01/27 10:00:59;;;;;;;18.53;11.90;;;4.70;99.90;;;;;;5033546;28;20791;-65
2023/01/27 10:04:00;;;;;;;28.67;13.30;;;4.80;99.90;;;;;;5030977;28;20201;-65
2023/01/27 10:06:45;;;;;;;27.73;12.93;;;4.80;99.90;;;;;;5021537;28;20202;-64
2023/01/27 10:09:37;;;;;;;41.37;15.40;;;4.90;99.90;;;;;;5032151;28;20711;-65
2023/01/27 10:12:20;;;;;;;21.50;11.63;;;4.90;99.90;;;;;;5020759;28;20193;-65
2023/01/27 10:15:02;;;;;;;20.17;11.13;;;4.90;99.90;;;;;;5022279;28;20208;-65
2023/01/27 10:17:39;;;;;;;20.70;10.90;;;5.00;99.90;;;;;;5017230;28;20564;-65
2023/01/27 10:20:27;;;;;;;15.63;10.87;;;5.00;99.90;;;;;;5018858;28;20213;-65
2023/01/27 10:23:13;;;;;;;16.93;9.97;;;5.10;99.90;;;;;;5047344;28;20529;-65
2023/01/27 10:25:54;;;;;;;21.27;10.23;;;5.20;99.90;;;;;;5029179;28;20205;-65
2023/01/27 10:28:28;;;;;;;13.03;9.10;;;5.30;99.90;;;;;;5029177;28;20201;-65
2023/01/27 10:31:00;;;;;;;13.73;8.63;;;5.30;99.90;;;;;;5024894;28;20554;-65
2023/01/27 10:33:43;;;;;;;13.00;8.40;;;5.30;99.90;;;;;;5022693;28;20205;-65
2023/01/27 10:36:19;;;;;;;11.67;7.40;;;5.30;99.90;;;;;;5028867;28;20198;-65
2023/01/27 10:38:53;;;;;;;9.77;7.60;;;5.40;99.90;;;;;;5021760;28;20649;-65
2023/01/27 10:41:30;;;;;;;9.77;7.37;;;5.40;99.90;;;;;;5015260;28;20225;-65
2023/01/27 10:44:15;;;;;;;8.97;6.80;;;5.40;99.90;;;;;;5025953;28;20651;-65
2023/01/27 10:46:54;;;;;;;7.63;6.83;;;5.40;99.90;;;;;;5020374;28;20247;-65
2023/01/27 10:49:29;;;;;;;8.87;6.57;;;5.30;99.90;;;;;;5016241;28;20290;-64
2023/01/27 10:52:03;;;;;;;7.67;6.77;;;5.40;99.90;;;;;;5028091;28;20193;-65
2023/01/27 10:54:38;;;;;;;8.50;6.53;;;5.40;99.90;;;;;;5018367;28;20223;-65
2023/01/27 10:57:12;;;;;;;7.67;5.77;;;5.40;99.90;;;;;;5032313;28;20209;-65
2023/01/27 10:59:47;;;;;;;8.50;6.00;;;5.30;99.90;;;;;;5013669;28;20193;-65
2023/01/27 11:02:44;;;;;;;8.23;5.97;;;5.30;99.90;;;;;;5032523;28;20732;-65
2023/01/27 11:05:19;;;;;;;7.70;6.03;;;5.30;99.90;;;;;;5021732;28;20231;-65
2023/01/27 11:07:52;;;;;;;6.73;6.07;;;5.30;99.90;;;;;;5028108;28;20315;-65
2023/01/27 11:10:22;;;;;;;6.17;5.50;;;5.20;99.90;;;;;;5030376;28;20196;-64
2023/01/27 11:12:54;;;;;;;6.93;5.90;;;5.20;99.90;;;;;;5025746;28;20206;-65
2023/01/27 11:15:28;;;;;;;6.50;5.80;;;5.20;99.90;;;;;;5021994;28;20198;-65
2023/01/27 11:18:01;;;;;;;8.33;6.03;;;5.20;99.90;;;;;;5029974;28;20197;-65
2023/01/27 11:20:34;;;;;;;6.20;5.50;;;5.20;99.90;;;;;;5018848;28;20590;-65
2023/01/27 11:23:11;;;;;;;7.30;6.30;;;5.20;99.90;;;;;;5017865;28;20273;-65
2023/01/27 11:25:47;;;;;;;6.10;5.50;;;5.20;99.90;;;;;;5031229;28;20201;-65
2023/01/27 11:28:25;;;;;;;6.37;5.77;;;5.20;99.90;;;;;;5024364;28;20193;-65
2023/01/27 11:31:07;;;;;;;7.13;5.57;;;5.20;99.90;;;;;;5032747;28;20200;-65
2023/01/27 11:33:50;;;;;;;6.83;6.23;;;5.20;99.90;;;;;;5017809;28;20190;-65
2023/01/27 11:36:18;;;;;;;8.17;6.43;;;5.20;99.90;;;;;;5038785;28;20200;-65
2023/01/27 11:38:47;;;;;;;9.40;5.87;;;5.20;99.90;;;;;;5041580;28;20186;-65
2023/01/27 11:41:15;;;;;;;6.77;6.07;;;5.20;99.90;;;;;;5022424;28;20237;-65
2023/01/27 11:43:44;;;;;;;5.70;5.17;;;5.30;99.90;;;;;;5023268;28;20217;-65
2023/01/27 11:46:18;;;;;;;6.17;5.57;;;5.20;99.90;;;;;;5022472;28;20513;-65
2023/01/27 11:48:50;;;;;;;6.20;5.60;;;5.30;99.90;;;;;;5021616;28;20561;-65
2023/01/27 11:51:21;;;;;;;5.80;5.30;;;5.30;99.90;;;;;;5027357;28;20198;-65
2023/01/27 11:53:57;;;;;;;5.60;5.10;;;5.30;99.90;;;;;;5023111;28;20207;-65
2023/01/27 11:56:25;;;;;;;6.07;5.57;;;5.40;99.90;;;;;;5016762;28;20209;-65
2023/01/27 11:59:01;;;;;;;5.50;5.00;;;5.30;99.90;;;;;;5024051;28;20196;-64
2023/01/27 12:01:43;;;;;;;5.30;4.90;;;5.40;99.90;;;;;;5021843;28;20320;-65
2023/01/27 12:04:19;;;;;;;5.23;4.83;;;5.40;99.90;;;;;;5023637;28;20703;-65
2023/01/27 12:06:50;;;;;;;5.13;4.73;;;5.40;99.90;;;;;;5016022;28;20264;-64
2023/01/27 12:09:33;;;;;;;5.20;4.90;;;5.40;99.90;;;;;;5019152;28;20542;-65
2023/01/27 12:12:11;;;;;;;5.53;4.90;;;5.40;99.90;;;;;;5023510;28;20204;-65
2023/01/27 12:14:40;;;;;;;5.40;4.83;;;5.50;99.90;;;;;;5017232;28;20201;-65
2023/01/27 12:17:16;;;;;;;4.50;4.20;;;5.50;99.90;;;;;;5019800;28;20200;-65
2023/01/27 12:19:45;;;;;;;6.23;4.40;;;5.50;99.90;;;;;;5025178;28;20197;-65
2023/01/27 12:22:24;;;;;;;5.43;4.93;;;5.50;99.90;;;;;;5031049;28;20217;-65
2023/01/27 12:24:56;;;;;;;5.90;5.33;;;5.60;99.90;;;;;;5017096;28;20209;-65
2023/01/27 12:27:28;;;;;;;5.87;5.23;;;5.60;99.90;;;;;;5027131;28;20209;-65
2023/01/27 12:30:00;;;;;;;5.40;4.90;;;5.50;99.90;;;;;;5029392;28;20242;-65
2023/01/27 12:32:38;;;;;;;5.97;5.43;;;5.50;99.90;;;;;;5019563;28;20202;-65
2023/01/27 12:35:18;;;;;;;5.33;4.80;;;5.50;99.90;;;;;;5023001;28;20224;-65
2023/01/27 12:37:48;;;;;;;7.50;6.30;;;5.60;99.90;;;;;;5029634;28;20654;-65
2023/01/27 12:40:21;;;;;;;16.90;7.00;;;5.70;99.90;;;;;;5028313;28;20202;-65
2023/01/27 12:42:50;;;;;;;12.50;7.03;;;5.70;99.90;;;;;;5021224;28;20832;-65
2023/01/27 12:45:25;;;;;;;11.43;7.03;;;5.70;99.90;;;;;;5013811;28;20197;-65
2023/01/27 12:48:00;;;;;;;7.90;5.23;;;5.70;99.90;;;;;;5024735;28;20232;-65
2023/01/27 12:50:31;;;;;;;7.93;6.13;;;5.60;99.90;;;;;;5021170;28;20239;-65
2023/01/27 12:53:11;;;;;;;7.37;5.57;;;5.60;99.90;;;;;;5029411;28;20197;-65
2023/01/27 12:55:43;;;;;;;5.80;5.27;;;5.60;99.90;;;;;;5021760;28;20202;-65
2023/01/27 12:58:30;;;;;;;6.20;4.63;;;5.60;99.90;;;;;;5033870;28;20196;-65
2023/01/27 13:01:01;;;;;;;5.23;4.77;;;5.50;99.90;;;;;;5025018;28;20208;-65
2023/01/27 13:03:37;;;;;;;5.57;5.10;;;5.40;99.90;;;;;;5023481;28;20331;-65
2023/01/27 13:06:08;;;;;;;4.97;4.57;;;5.50;99.90;;;;;;5029898;28;20525;-65
2023/01/27 13:08:40;;;;;;;4.90;4.50;;;5.50;99.90;;;;;;5023876;28;20234;-65
2023/01/27 13:11:08;;;;;;;4.87;4.33;;;5.50;99.90;;;;;;5026423;28;20198;-65
2023/01/27 13:13:37;;;;;;;5.23;4.40;;;5.40;99.90;;;;;;5024253;28;20525;-65
2023/01/27 13:16:14;;;;;;;4.70;4.40;;;5.40;99.90;;;;;;5027521;28;20292;-65
2023/01/27 13:18:54;;;;;;;7.23;5.10;;;5.40;99.90;;;;;;5017091;28;20232;-65
2023/01/27 13:21:25;;;;;;;5.30;4.80;;;5.30;99.90;;;;;;5028606;28;20267;-65
2023/01/27 13:23:55;;;;;;;5.90;5.23;;;5.30;99.90;;;;;;5021207;28;20285;-65
2023/01/27 13:26:28;;;;;;;7.00;6.17;;;5.30;99.90;;;;;;5023853;28;20537;-65
2023/01/27 13:29:04;;;;;;;6.83;5.90;;;5.20;99.90;;;;;;5025201;28;20193;-65
2023/01/27 13:31:42;;;;;;;7.53;6.30;;;5.20;99.90;;;;;;5028410;28;20662;-65
2023/01/27 13:34:23;;;;;;;5.80;5.30;;;5.20;99.90;;;;;;5032348;28;20714;-65
2023/01/27 13:36:56;;;;;;;5.90;5.40;;;5.20;99.90;;;;;;5020423;28;20652;-65